Alts de Monte Brisas, Puerto Rico
Current Conditions -  °F | °C
As of 12:53 AM on Thursday 23 Oct 2014 (Local Time) from TJNR Reporting Station
Few Clouds Few Clouds  
Wind Chill: 24°   Ceiling: Unl
Heat Index: 24°   Visibility: 10mi
Dew Point: 22°   Wind: 3mph
Humidity: 87%   Direction: 340°NNW
Pressure: 29.97"   Gusts: NA
Location:  18.3304°N, 65.6573°W
Report Text: TJNR 230453Z AUTO 34003KT 10SM FEW024 24/22 A2997 RMK AO2 SLP150 T02440222
Loading
Personal Weather Stations






























Interactive Weather Map
Tropical Storm Tracking
New forecast layout! Learn more

10-Day Weather Forecast

Advertisements
Track Severe Weather on mobile